Time;durP1;ratioP1;P1;durP2;ratioP2;P2;SDS_P1;SDS_P2;PMS_P1;PMS_P2;Temp;Humidity;BMP_temperature;BMP_pressure;BME280_temperature;BME280_humidity;BME280_pressure;Samples;Min_cycle;Max_cycle;Signal;HPM_P1;HPM_P2
2023/01/05 00:00:24;;;;;;;;;;;;;;;-3.04;82.41;98885.59;4926935;29;19969;-70
2023/01/05 00:02:51;;;;;;;;;;;;;;;-3.04;82.60;98889.06;4927504;29;19934;-71
2023/01/05 00:05:17;;;;;;;;;;;;;;;-3.03;82.17;98887.22;4926966;29;20502;-70
2023/01/05 00:07:43;;;;;;;;;;;;;;;-3.04;82.40;98888.25;4927368;29;19974;-71
2023/01/05 00:22:29;;;;;;;;;;;;;;;-3.04;82.64;98882.91;4921701;29;19937;-69
2023/01/05 00:23:56;;;;;;;;;;;;;;;-3.07;82.72;98878.78;4958734;28;19961;-70
2023/01/05 00:26:22;;;;;;;;;;;;;;;-3.05;82.64;98879.41;4962814;28;19930;-70
2023/01/05 00:28:48;;;;;;;;;;;;;;;-3.00;82.30;98889.47;4962995;28;20414;-71
2023/01/05 00:31:13;;;;;;;;;;;;;;;-3.01;82.38;98883.28;4965469;28;20321;-71
2023/01/05 00:33:40;;;;;;;;;;;;;;;-2.98;82.34;98871.38;4961791;28;20076;-70
2023/01/05 00:36:08;;;;;;;;;;;;;;;-2.92;82.57;98880.41;4963824;28;20045;-70
2023/01/05 00:38:33;;;;;;;;;;;;;;;-2.89;82.33;98880.81;4963529;28;20424;-71
2023/01/05 00:40:59;;;;;;;;;;;;;;;-2.82;82.39;98879.97;4963437;28;20029;-65
2023/01/05 00:43:25;;;;;;;;;;;;;;;-2.81;82.23;98873.59;4954873;28;20394;-65
2023/01/05 00:45:50;;;;;;;;;;;;;;;-2.83;82.08;98868.44;4945970;28;20057;-65
2023/01/05 00:48:16;;;;;;;;;;;;;;;-2.86;82.16;98871.53;4930076;29;20373;-65
2023/01/05 00:50:44;;;;;;;;;;;;;;;-2.87;82.35;98873.41;4943745;28;20398;-64
2023/01/05 00:53:10;;;;;;;;;;;;;;;-2.88;82.28;98876.28;4942646;28;20508;-65
2023/01/05 00:55:36;;;;;;;;;;;;;;;-2.87;82.40;98872.56;4949202;28;19998;-65
2023/01/05 00:58:02;;;;;;;;;;;;;;;-2.81;82.54;98874.44;4944225;28;19931;-65
2023/01/05 01:00:27;;;;;;;;;;;;;;;-2.72;82.39;98873.16;4925666;29;19930;-65
2023/01/05 01:02:53;;;;;;;;;;;;;;;-2.66;82.20;98870.66;4926858;28;19938;-65
2023/01/05 01:05:19;;;;;;;;;;;;;;;-2.65;81.02;98870.44;4948183;28;19931;-65
2023/01/05 01:07:48;;;;;;;;;;;;;;;-2.61;80.68;98873.53;4944862;28;19977;-65
2023/01/05 01:10:14;;;;;;;;;;;;;;;-2.59;79.68;98868.78;4941886;28;19934;-70
2023/01/05 01:12:40;;;;;;;;;;;;;;;-2.66;79.35;98860.78;4929966;29;19958;-70
2023/01/05 01:15:06;;;;;;;;;;;;;;;-2.72;79.39;98867.00;4934537;29;19967;-70
2023/01/05 01:17:32;;;;;;;;;;;;;;;-2.80;79.83;98862.69;4932605;29;19930;-70
2023/01/05 01:19:58;;;;;;;;;;;;;;;-2.90;80.14;98854.28;4928719;29;19931;-70
2023/01/05 01:22:23;;;;;;;;;;;;;;;-2.97;80.75;98858.78;4936284;29;20205;-71
2023/01/05 01:24:51;;;;;;;;;;;;;;;-3.01;80.93;98861.09;4928220;29;20021;-70
2023/01/05 01:27:16;;;;;;;;;;;;;;;-3.05;81.07;98862.50;4930105;28;20433;-71
2023/01/05 01:29:42;;;;;;;;;;;;;;;-3.09;81.29;98855.94;4932178;29;20037;-71
2023/01/05 01:32:08;;;;;;;;;;;;;;;-3.14;80.50;98856.56;4930173;29;19937;-71
2023/01/05 01:34:34;;;;;;;;;;;;;;;-3.16;80.63;98847.94;4930025;29;19963;-71
2023/01/05 01:37:00;;;;;;;;;;;;;;;-3.07;80.29;98860.06;4932061;29;19931;-71
2023/01/05 01:39:33;;;;;;;;;;;;;;;-3.02;79.64;98857.59;4932876;29;19935;-71
2023/01/05 01:42:05;;;;;;;;;;;;;;;-2.93;79.57;98860.03;4928570;29;19931;-70
2023/01/05 01:44:58;;;;;;;;;;;;;;;-2.87;78.95;98860.03;4932915;29;20386;-71
2023/01/05 01:47:37;;;;;;;;;;;;;;;-2.81;78.55;98863.72;4904808;29;19957;-71
2023/01/05 01:50:07;;;;;;;;;;;;;;;-2.79;78.08;98860.81;4930337;29;19970;-71
2023/01/05 01:52:36;;;;;;;;;;;;;;;-2.94;78.34;98837.81;4931928;29;19930;-65
2023/01/05 01:55:03;;;;;;;;;;;;;;;-2.85;78.64;98854.44;4929892;29;19930;-65
2023/01/05 01:57:32;;;;;;;;;;;;;;;-2.83;78.82;98851.56;4931481;28;20371;-65
2023/01/05 01:59:59;;;;;;;;;;;;;;;-2.85;78.57;98849.94;4931715;29;20300;-65
2023/01/05 02:02:28;;;;;;;;;;;;;;;-2.89;78.69;98848.72;4930024;29;19937;-65
2023/01/05 02:04:56;;;;;;;;;;;;;;;-2.92;79.07;98848.31;4931525;29;19935;-71
2023/01/05 02:07:23;;;;;;;;;;;;;;;-2.95;79.44;98846.88;4932332;29;20391;-71
2023/01/05 02:09:49;;;;;;;;;;;;;;;-2.91;79.46;98852.63;4935387;28;19937;-71
2023/01/05 02:12:22;;;;;;;;;;;;;;;-2.92;79.75;98854.47;4932682;29;19930;-71
2023/01/05 02:14:59;;;;;;;;;;;;;;;-2.92;79.73;98854.47;4930766;29;20469;-71
2023/01/05 02:17:30;;;;;;;;;;;;;;;-2.97;79.75;98851.59;4912027;29;19950;-71
2023/01/05 02:20:14;;;;;;;;;;;;;;;-3.07;80.16;98849.38;4930229;28;20482;-71
2023/01/05 02:22:55;;;;;;;;;;;;;;;-3.22;80.49;98833.53;4928885;29;19931;-71
2023/01/05 02:25:36;;;;;;;;;;;;;;;-3.22;80.60;98841.56;4893785;29;19986;-71
2023/01/05 02:28:11;;;;;;;;;;;;;;;-3.29;80.69;98846.91;4930165;29;19930;-71
2023/01/05 02:30:53;;;;;;;;;;;;;;;-3.36;80.87;98842.59;4930399;29;20307;-65
2023/01/05 02:33:25;;;;;;;;;;;;;;;-3.35;81.09;98834.38;4910644;29;19962;-65
2023/01/05 02:35:56;;;;;;;;;;;;;;;-3.32;81.22;98830.50;4926472;29;19978;-66
2023/01/05 02:38:25;;;;;;;;;;;;;;;-3.30;81.07;98837.25;4927545;29;20474;-66
2023/01/05 02:40:54;;;;;;;;;;;;;;;-3.33;81.22;98823.50;4928225;29;19931;-65
2023/01/05 02:43:20;;;;;;;;;;;;;;;-3.29;81.22;98827.41;4926831;29;19937;-65
2023/01/05 02:45:45;;;;;;;;;;;;;;;-3.23;81.31;98826.56;4925338;29;19930;-66
2023/01/05 02:48:11;;;;;;;;;;;;;;;-3.14;81.14;98830.66;4927060;29;19966;-65
2023/01/05 02:50:41;;;;;;;;;;;;;;;-3.13;80.95;98826.94;4930763;29;19956;-65
2023/01/05 02:53:13;;;;;;;;;;;;;;;-3.07;80.57;98819.13;4925148;29;19935;-65
2023/01/05 02:55:42;;;;;;;;;;;;;;;-3.01;79.41;98823.63;4928935;29;19986;-65
2023/01/05 02:58:13;;;;;;;;;;;;;;;-2.97;78.16;98824.84;4930488;29;19930;-65
2023/01/05 03:00:41;;;;;;;;;;;;;;;-3.02;76.89;98812.09;4929317;29;19931;-65
2023/01/05 03:03:10;;;;;;;;;;;;;;;-3.03;76.26;98823.03;4928777;29;19931;-65
2023/01/05 03:05:41;;;;;;;;;;;;;;;-3.05;76.10;98819.72;4931112;29;19935;-69
2023/01/05 03:08:09;;;;;;;;;;;;;;;-3.08;75.33;98810.28;4929838;29;20025;-71
2023/01/05 03:13:42;;;;;;;;;;;;;;;-3.14;74.55;98821.81;4928484;29;20257;-70
2023/01/05 03:16:13;;;;;;;;;;;;;;;-3.17;74.25;98815.03;4927768;29;20057;-70
2023/01/05 03:21:27;;;;;;;;;;;;;;;-3.24;74.14;98816.06;4929569;29;19931;-70
2023/01/05 03:37:50;;;;;;;;;;;;;;;-3.24;74.67;98808.06;4933569;28;20037;-71
2023/01/05 03:40:19;;;;;;;;;;;;;;;-3.27;74.73;98803.94;4927369;29;19930;-70
2023/01/05 03:42:46;;;;;;;;;;;;;;;-3.28;74.58;98799.63;4925436;29;19938;-70
2023/01/05 03:45:14;;;;;;;;;;;;;;;-3.28;74.55;98797.78;4928468;29;19931;-70
2023/01/05 03:47:40;;;;;;;;;;;;;;;-3.30;74.02;98783.78;4928791;29;19934;-70
2023/01/05 03:50:07;;;;;;;;;;;;;;;-3.37;73.47;98784.81;4911022;29;20474;-70
2023/01/05 03:52:33;;;;;;;;;;;;;;;-3.51;73.12;98784.88;4926086;29;19937;-70
2023/01/05 03:55:01;;;;;;;;;;;;;;;-3.66;72.93;98787.75;4929283;28;19970;-70
2023/01/05 03:57:28;;;;;;;;;;;;;;;-3.73;72.67;98787.75;4930909;28;19934;-70
2023/01/05 03:59:55;;;;;;;;;;;;;;;-3.72;72.39;98788.59;4930351;29;20342;-71
2023/01/05 04:02:20;;;;;;;;;;;;;;;-3.67;72.29;98778.09;4944468;28;19934;-70
2023/01/05 04:04:46;;;;;;;;;;;;;;;-3.64;71.87;98780.34;4944212;28;19930;-70
2023/01/05 04:07:12;;;;;;;;;;;;;;;-3.61;71.58;98781.78;4935427;28;20378;-70
2023/01/05 04:09:39;;;;;;;;;;;;;;;-3.63;71.65;98779.31;4932001;28;20037;-70
2023/01/05 04:12:06;;;;;;;;;;;;;;;-3.61;71.41;98771.91;4951383;28;20036;-70
2023/01/05 04:14:37;;;;;;;;;;;;;;;-3.58;71.42;98784.88;4949335;28;19930;-70
2023/01/05 04:17:03;;;;;;;;;;;;;;;-3.53;71.78;98786.09;4945008;28;20676;-71
2023/01/05 04:19:30;;;;;;;;;;;;;;;-3.52;71.93;98777.03;4927472;29;19937;-72
2023/01/05 04:21:56;;;;;;;;;;;;;;;-3.52;72.13;98787.75;4910863;29;20029;-71
2023/01/05 04:24:23;;;;;;;;;;;;;;;-3.52;72.63;98790.41;4926987;29;19931;-71
2023/01/05 04:26:49;;;;;;;;;;;;;;;-3.55;72.82;98775.59;4926195;29;20032;-71
2023/01/05 04:29:18;;;;;;;;;;;;;;;-3.53;73.10;98786.91;4913001;29;20418;-71
2023/01/05 04:31:47;;;;;;;;;;;;;;;-3.57;73.44;98772.31;4926036;29;19966;-71
2023/01/05 04:34:13;;;;;;;;;;;;;;;-3.62;73.56;98772.94;4927143;29;19966;-71
2023/01/05 04:36:39;;;;;;;;;;;;;;;-3.63;74.05;98767.81;4923952;29;19930;-71
2023/01/05 04:39:05;;;;;;;;;;;;;;;-3.63;74.30;98765.94;4926247;29;19987;-70
2023/01/05 04:41:32;;;;;;;;;;;;;;;-3.65;74.10;98759.19;4928673;29;19930;-71
2023/01/05 04:43:58;;;;;;;;;;;;;;;-3.66;73.90;98757.53;4931067;28;20302;-70
2023/01/05 04:46:26;;;;;;;;;;;;;;;-3.69;73.78;98756.09;4930070;28;19930;-70
2023/01/05 04:48:54;;;;;;;;;;;;;;;-3.70;73.45;98749.91;4928529;28;19934;-70
2023/01/05 04:51:20;;;;;;;;;;;;;;;-3.72;73.45;98751.19;4925574;29;19955;-71
2023/01/05 04:53:46;;;;;;;;;;;;;;;-3.76;73.25;98756.09;4925065;29;19931;-70
2023/01/05 04:56:15;;;;;;;;;;;;;;;-3.77;73.38;98761.63;4925865;29;19931;-70
2023/01/05 04:58:43;;;;;;;;;;;;;;;-3.80;73.17;98757.56;4926320;29;19939;-69
2023/01/05 05:01:09;;;;;;;;;;;;;;;-3.79;73.36;98761.03;4927018;29;19930;-70
2023/01/05 05:03:38;;;;;;;;;;;;;;;-3.77;73.15;98766.97;4926526;29;19975;-70
2023/01/05 05:06:08;;;;;;;;;;;;;;;-3.76;72.42;98758.78;4923659;29;19934;-70
2023/01/05 05:08:34;;;;;;;;;;;;;;;-3.77;72.28;98751.78;4925849;29;19935;-65
2023/01/05 05:11:02;;;;;;;;;;;;;;;-3.77;72.24;98758.97;4924732;28;19930;-65
2023/01/05 05:13:30;;;;;;;;;;;;;;;-3.80;72.22;98749.53;4926376;29;19986;-65
2023/01/05 05:15:57;;;;;;;;;;;;;;;-3.79;72.38;98759.19;4925537;29;19930;-65
2023/01/05 05:18:23;;;;;;;;;;;;;;;-3.74;72.03;98753.22;4923947;29;19930;-65
2023/01/05 05:20:52;;;;;;;;;;;;;;;-3.72;71.85;98749.31;4929223;29;19935;-65
2023/01/05 05:23:22;;;;;;;;;;;;;;;-3.67;71.50;98754.03;4925849;29;19931;-66
2023/01/05 05:25:48;;;;;;;;;;;;;;;-3.65;71.70;98753.84;4928655;29;19937;-64
2023/01/05 05:28:14;;;;;;;;;;;;;;;-3.61;71.97;98752.38;4925047;29;19931;-65
2023/01/05 05:30:40;;;;;;;;;;;;;;;-3.61;72.18;98747.84;4927793;28;19945;-66
2023/01/05 05:33:06;;;;;;;;;;;;;;;-3.62;72.73;98756.09;4923904;29;19930;-65
2023/01/05 05:35:31;;;;;;;;;;;;;;;-3.64;73.29;98748.28;4933558;28;19930;-66
2023/01/05 05:38:00;;;;;;;;;;;;;;;-3.64;73.43;98750.94;4948267;29;20048;-66
2023/01/05 05:40:26;;;;;;;;;;;;;;;-3.59;73.96;98747.66;4945991;29;20430;-65
2023/01/05 05:42:51;;;;;;;;;;;;;;;-3.57;74.04;98746.44;4933300;28;19936;-66
2023/01/05 05:45:17;;;;;;;;;;;;;;;-3.53;74.08;98746.00;4932092;28;19935;-66
2023/01/05 05:47:43;;;;;;;;;;;;;;;-3.56;73.91;98747.22;4924118;29;19958;-65
2023/01/05 05:50:09;;;;;;;;;;;;;;;-3.65;73.83;98746.63;4924105;29;19942;-65
2023/01/05 05:52:35;;;;;;;;;;;;;;;-3.71;73.86;98742.94;4927699;29;19985;-66
2023/01/05 05:55:02;;;;;;;;;;;;;;;-3.73;74.08;98746.88;4931816;29;20318;-65
2023/01/05 05:57:28;;;;;;;;;;;;;;;-3.71;73.77;98750.16;4929307;29;19996;-66
2023/01/05 05:59:54;;;;;;;;;;;;;;;-3.80;73.62;98748.69;4928283;29;20438;-65
2023/01/05 06:02:20;;;;;;;;;;;;;;;-3.84;73.40;98745.63;4931224;29;19963;-66
2023/01/05 06:04:46;;;;;;;;;;;;;;;-3.91;73.11;98745.63;4929998;28;20346;-65
2023/01/05 06:07:12;;;;;;;;;;;;;;;-3.97;72.71;98748.31;4928750;29;19969;-67
2023/01/05 06:09:37;;;;;;;;;;;;;;;-3.96;72.68;98741.94;4929876;29;20048;-66
2023/01/05 06:12:05;;;;;;;;;;;;;;;-3.92;72.34;98743.97;4928706;29;20517;-65
2023/01/05 06:14:31;;;;;;;;;;;;;;;-3.87;71.90;98738.84;4919017;29;20374;-66
2023/01/05 06:16:57;;;;;;;;;;;;;;;-3.88;71.58;98734.53;4930915;29;19977;-65
2023/01/05 06:19:24;;;;;;;;;;;;;;;-3.93;71.53;98730.84;4926264;29;20302;-65
2023/01/05 06:21:50;;;;;;;;;;;;;;;-3.99;71.70;98730.63;4927738;29;20313;-66
2023/01/05 06:24:16;;;;;;;;;;;;;;;-4.08;71.66;98726.53;4930358;29;20403;-66
2023/01/05 06:26:42;;;;;;;;;;;;;;;-4.16;71.84;98724.03;4926733;29;19939;-65
2023/01/05 06:29:09;;;;;;;;;;;;;;;-4.18;72.05;98726.09;4929601;28;19950;-65
2023/01/05 06:31:35;;;;;;;;;;;;;;;-4.10;71.51;98725.06;4939513;28;19930;-66
2023/01/05 06:34:00;;;;;;;;;;;;;;;-4.03;70.89;98729.41;4946314;28;19938;-65
2023/01/05 06:36:26;;;;;;;;;;;;;;;-3.96;70.45;98734.72;4944293;28;20418;-65
2023/01/05 06:38:52;;;;;;;;;;;;;;;-4.03;70.30;98726.72;4948931;28;19949;-66
2023/01/05 06:41:18;;;;;;;;;;;;;;;-4.05;70.19;98730.66;4949350;28;19935;-65
2023/01/05 06:43:44;;;;;;;;;;;;;;;-4.04;70.21;98733.09;4948561;28;20007;-65
2023/01/05 06:46:11;;;;;;;;;;;;;;;-4.05;70.26;98728.78;4938641;28;19930;-65
2023/01/05 06:48:37;;;;;;;;;;;;;;;-4.05;70.32;98730.66;4928849;29;19950;-65
2023/01/05 06:51:03;;;;;;;;;;;;;;;-4.09;70.34;98724.88;4929819;29;20037;-65
2023/01/05 06:53:29;;;;;;;;;;;;;;;-4.06;70.65;98724.47;4944079;28;19934;-65
2023/01/05 06:55:54;;;;;;;;;;;;;;;-4.03;70.53;98725.91;4962888;28;20325;-65
2023/01/05 06:58:20;;;;;;;;;;;;;;;-4.03;70.47;98726.72;4927927;29;19958;-66
2023/01/05 07:00:46;;;;;;;;;;;;;;;-4.01;70.27;98729.19;4929258;29;19930;-65
2023/01/05 07:03:13;;;;;;;;;;;;;;;-4.06;70.62;98729.81;4928669;29;19930;-66
2023/01/05 07:05:39;;;;;;;;;;;;;;;-4.17;70.72;98720.56;4925368;29;19931;-65
2023/01/05 07:08:05;;;;;;;;;;;;;;;-4.14;70.89;98730.84;4927745;29;19942;-70
2023/01/05 07:10:30;;;;;;;;;;;;;;;-4.12;71.12;98733.31;4925599;28;19931;-70
2023/01/05 07:12:56;;;;;;;;;;;;;;;-4.13;71.18;98731.69;4926279;29;19973;-71
2023/01/05 07:15:22;;;;;;;;;;;;;;;-4.18;71.33;98732.28;4929085;29;19931;-71
2023/01/05 07:17:48;;;;;;;;;;;;;;;-4.17;71.32;98736.59;4927554;29;19931;-70
2023/01/05 07:20:15;;;;;;;;;;;;;;;-4.13;71.66;98734.34;4926124;29;19931;-70
2023/01/05 07:22:40;;;;;;;;;;;;;;;-4.11;71.20;98726.94;4925371;29;19931;-70
2023/01/05 07:25:07;;;;;;;;;;;;;;;-4.15;71.35;98725.69;4924910;29;19931;-70
2023/01/05 07:27:33;;;;;;;;;;;;;;;-4.16;71.26;98730.22;4928080;29;20358;-69
2023/01/05 07:29:59;;;;;;;;;;;;;;;-4.18;71.30;98729.59;4928115;29;19931;-70
2023/01/05 07:32:24;;;;;;;;;;;;;;;-4.16;71.33;98724.88;4937199;28;19962;-65
2023/01/05 07:34:50;;;;;;;;;;;;;;;-4.15;71.43;98728.34;4929871;28;19937;-65
2023/01/05 07:37:17;;;;;;;;;;;;;;;-4.19;71.50;98711.13;4925949;29;19993;-65
2023/01/05 07:39:43;;;;;;;;;;;;;;;-4.01;71.32;98734.53;4929055;28;19963;-65
2023/01/05 07:42:09;;;;;;;;;;;;;;;-3.92;71.31;98733.28;4592503;28;10000256;-65
2023/01/05 07:44:36;;;;;;;;;;;;;;;-3.89;71.08;98735.56;4943231;29;20077;-66
2023/01/05 07:47:02;;;;;;;;;;;;;;;-3.92;71.19;98727.13;4942828;29;19938;-66
2023/01/05 07:49:28;;;;;;;;;;;;;;;-4.06;71.29;98721.81;4941717;29;19930;-65
2023/01/05 07:51:54;;;;;;;;;;;;;;;-3.95;71.43;98723.03;4923295;29;19962;-66
2023/01/05 07:54:21;;;;;;;;;;;;;;;-3.93;71.32;98722.81;4923535;29;19931;-71
2023/01/05 07:56:46;;;;;;;;;;;;;;;-3.84;71.24;98716.22;4920356;29;19953;-71
2023/01/05 07:59:12;;;;;;;;;;;;;;;-3.80;71.07;98727.31;4906161;29;20802;-70
2023/01/05 08:01:38;;;;;;;;;;;;;;;-3.83;71.33;98725.88;4925574;29;19934;-70
2023/01/05 08:04:03;;;;;;;;;;;;;;;-3.83;70.91;98725.06;4923047;29;20041;-70
2023/01/05 08:06:30;;;;;;;;;;;;;;;-3.79;71.22;98720.94;4922827;29;20386;-70
2023/01/05 08:08:56;;;;;;;;;;;;;;;-3.71;71.06;98721.56;4922601;29;19978;-70
2023/01/05 08:11:23;;;;;;;;;;;;;;;-3.70;70.70;98719.72;4923618;28;19986;-70
2023/01/05 08:13:58;;;;;;;;;;;;;;;-3.75;70.68;98716.84;4924641;29;19966;-70
2023/01/05 08:16:24;;;;;;;;;;;;;;;-3.79;71.06;98713.78;4923212;29;20403;-70
2023/01/05 08:18:50;;;;;;;;;;;;;;;-3.83;70.84;98711.72;4936789;28;20492;-70
2023/01/05 08:21:16;;;;;;;;;;;;;;;-3.84;70.98;98713.56;4951439;28;20049;-71
2023/01/05 08:23:44;;;;;;;;;;;;;;;-3.81;70.98;98712.34;4951770;28;20322;-70
2023/01/05 08:26:11;;;;;;;;;;;;;;;-3.80;71.07;98708.63;4953746;28;19957;-70
2023/01/05 08:28:39;;;;;;;;;;;;;;;-3.68;70.86;98708.81;4953231;28;19930;-70
2023/01/05 08:31:06;;;;;;;;;;;;;;;-3.66;70.65;98715.59;4957661;28;19941;-65
2023/01/05 08:33:35;;;;;;;;;;;;;;;-3.71;70.61;98710.06;4943195;28;19931;-69
2023/01/05 08:36:01;;;;;;;;;;;;;;;-3.68;70.57;98714.16;4955577;28;19937;-66
2023/01/05 08:38:28;;;;;;;;;;;;;;;-3.61;70.39;98712.31;4958732;28;19961;-65
2023/01/05 08:40:57;;;;;;;;;;;;;;;-3.58;70.01;98704.69;4957520;28;19997;-65
2023/01/05 08:43:23;;;;;;;;;;;;;;;-3.52;69.75;98708.34;4955084;28;20036;-65
2023/01/05 08:45:50;;;;;;;;;;;;;;;-3.53;69.16;98701.38;4933318;28;20033;-66
2023/01/05 08:48:16;;;;;;;;;;;;;;;-3.53;69.39;98703.25;4951748;28;19937;-65
2023/01/05 08:50:42;;;;;;;;;;;;;;;-3.47;69.41;98692.53;4950686;28;20292;-65
2023/01/05 08:53:07;;;;;;;;;;;;;;;-3.35;69.21;98692.69;4950466;28;19937;-65
2023/01/05 08:55:33;;;;;;;;;;;;;;;-3.30;69.09;98690.19;4953097;28;19931;-65
2023/01/05 08:57:59;;;;;;;;;;;;;;;-3.35;69.25;98692.69;4944883;28;19941;-65
2023/01/05 09:00:25;;;;;;;;;;;;;;;-3.33;69.38;98687.16;4950311;28;19930;-65
2023/01/05 09:02:52;;;;;;;;;;;;;;;-3.39;69.15;98687.97;4948042;28;19966;-66
2023/01/05 09:05:18;;;;;;;;;;;;;;;-3.40;69.14;98683.66;4951767;28;19934;-65
2023/01/05 09:07:43;;;;;;;;;;;;;;;-3.45;69.04;98684.28;4953173;28;19938;-70
2023/01/05 09:10:10;;;;;;;;;;;;;;;-3.52;69.14;98678.97;4951726;28;19930;-70
2023/01/05 09:12:36;;;;;;;;;;;;;;;-3.58;69.11;98669.13;4952388;28;20158;-71
2023/01/05 09:15:02;;;;;;;;;;;;;;;-3.53;69.31;98668.50;4934291;28;19930;-70
2023/01/05 09:17:28;;;;;;;;;;;;;;;-3.57;69.44;98670.75;4952650;28;19930;-65
2023/01/05 09:19:56;;;;;;;;;;;;;;;-3.65;69.70;98665.66;4950413;28;20432;-71
2023/01/05 09:22:21;;;;;;;;;;;;;;;-3.72;69.63;98668.34;4955851;28;19993;-70
2023/01/05 09:24:48;;;;;;;;;;;;;;;-3.77;69.72;98654.78;4957726;28;19930;-66
2023/01/05 09:27:20;;;;;;;;;;;;;;;-3.86;69.75;98660.34;4922124;28;19930;-65
2023/01/05 09:29:46;;;;;;;;;;;;;;;-3.88;69.96;98657.06;4927211;28;19930;-65
2023/01/05 09:32:11;;;;;;;;;;;;;;;-3.83;69.49;98660.97;4957253;28;19941;-65
2023/01/05 09:34:37;;;;;;;;;;;;;;;-3.87;69.66;98665.91;4952549;28;19931;-65
2023/01/05 09:37:04;;;;;;;;;;;;;;;-3.92;69.62;98655.03;4951633;28;19929;-65
2023/01/05 09:39:30;;;;;;;;;;;;;;;-3.87;69.86;98653.38;4956146;28;20026;-66
2023/01/05 09:41:58;;;;;;;;;;;;;;;-3.85;69.43;98653.16;4956290;28;20023;-66
2023/01/05 09:44:27;;;;;;;;;;;;;;;-3.94;69.19;98657.88;4951881;28;20326;-66
2023/01/05 09:46:54;;;;;;;;;;;;;;;-3.94;69.40;98652.53;4946704;28;19934;-66
2023/01/05 09:49:21;;;;;;;;;;;;;;;-3.91;69.04;98649.44;4947027;28;19942;-68
2023/01/05 09:51:49;;;;;;;;;;;;;;;-4.04;68.80;98644.97;4943268;28;19935;-70
2023/01/05 09:54:17;;;;;;;;;;;;;;;-4.20;69.03;98640.06;4942434;28;19930;-70
2023/01/05 09:56:43;;;;;;;;;;;;;;;-4.27;69.51;98642.72;4948379;28;20029;-66
2023/01/05 09:59:12;;;;;;;;;;;;;;;-4.37;69.62;98640.47;4954310;28;20021;-66
2023/01/05 10:01:39;;;;;;;;;;;;;;;-4.46;69.62;98631.03;4950225;28;19930;-66
2023/01/05 10:04:06;;;;;;;;;;;;;;;-4.54;69.52;98632.06;4939806;28;20033;-70
2023/01/05 10:06:34;;;;;;;;;;;;;;;-4.54;69.84;98632.06;4962772;28;19934;-66
2023/01/05 10:09:01;;;;;;;;;;;;;;;-4.51;69.64;98629.00;4957336;28;19931;-66
2023/01/05 10:14:18;;;;;;;;;;;;;;;-4.56;68.98;98634.94;4951166;28;19930;-70
2023/01/05 10:16:45;;;;;;;;;;;;;;;-4.64;69.06;98632.47;4953253;28;20169;-70
2023/01/05 10:19:12;;;;;;;;;;;;;;;-4.58;69.26;98633.50;4951891;28;19942;-70
2023/01/05 10:21:45;;;;;;;;;;;;;;;-4.58;69.30;98631.66;4955550;28;19958;-70
2023/01/05 10:24:23;;;;;;;;;;;;;;;-4.47;69.07;98632.88;4955984;28;19931;-66
2023/01/05 10:26:55;;;;;;;;;;;;;;;-4.43;68.72;98627.97;4950489;28;19935;-66
2023/01/05 10:29:25;;;;;;;;;;;;;;;-4.36;68.46;98627.97;4954414;28;19930;-70
2023/01/05 10:31:54;;;;;;;;;;;;;;;-4.32;68.46;98629.19;4948186;28;19934;-66
2023/01/05 10:34:21;;;;;;;;;;;;;;;-4.28;68.42;98627.75;4954039;28;19968;-66
2023/01/05 10:36:53;;;;;;;;;;;;;;;-4.38;67.83;98627.31;4957796;28;19931;-66
2023/01/05 10:39:25;;;;;;;;;;;;;;;-4.48;68.08;98623.25;4956506;28;19930;-70
2023/01/05 10:41:58;;;;;;;;;;;;;;;-4.56;67.89;98626.94;4957687;28;19937;-66
2023/01/05 10:44:39;;;;;;;;;;;;;;;-4.59;67.39;98630.03;4936650;28;19937;-70
2023/01/05 10:47:07;;;;;;;;;;;;;;;-4.74;67.59;98624.88;4959467;28;20025;-70
2023/01/05 10:49:33;;;;;;;;;;;;;;;-4.80;67.56;98627.53;4956960;28;19930;-70
2023/01/05 10:51:59;;;;;;;;;;;;;;;-4.82;67.73;98627.75;4954222;28;19957;-70
2023/01/05 10:54:28;;;;;;;;;;;;;;;-4.80;67.39;98632.84;4952332;28;20105;-70
2023/01/05 10:57:16;;;;;;;;;;;;;;;-4.84;67.24;98640.44;4951885;28;20422;-70
2023/01/05 10:59:53;;;;;;;;;;;;;;;-4.93;67.78;98634.47;4961894;28;19930;-66
2023/01/05 11:02:19;;;;;;;;;;;;;;;-4.85;67.59;98636.97;4947552;28;20021;-66
2023/01/05 11:04:46;;;;;;;;;;;;;;;-4.90;67.30;98634.09;4950705;28;19938;-70
2023/01/05 11:07:12;;;;;;;;;;;;;;;-4.82;67.42;98634.91;4945868;28;20029;-66
2023/01/05 11:09:39;;;;;;;;;;;;;;;-4.81;66.94;98640.06;4953876;28;20016;-70
2023/01/05 11:12:15;;;;;;;;;;;;;;;-4.84;66.37;98638.59;4952875;28;19930;-70
2023/01/05 11:14:42;;;;;;;;;;;;;;;-4.86;66.36;98632.66;4954109;28;19937;-70
2023/01/05 11:17:13;;;;;;;;;;;;;;;-4.81;66.16;98634.72;4954267;28;20037;-70
2023/01/05 11:19:40;;;;;;;;;;;;;;;-4.85;66.12;98639.63;4951427;28;20073;-70
2023/01/05 11:22:25;;;;;;;;;;;;;;;-4.93;66.51;98639.00;4948007;28;19941;-70
2023/01/05 11:24:50;;;;;;;;;;;;;;;-4.94;66.41;98635.50;4946676;28;19931;-70
2023/01/05 11:27:23;;;;;;;;;;;;;;;-4.92;66.48;98632.63;4942532;28;19993;-70
2023/01/05 11:30:16;;;;;;;;;;;;;;;-4.90;65.63;98636.75;4953199;28;19966;-70
2023/01/05 11:32:42;;;;;;;;;;;;;;;-4.89;65.79;98632.22;4954151;28;19952;-70
2023/01/05 11:35:16;;;;;;;;;;;;;;;-4.92;65.71;98636.13;4955587;28;20611;-70
2023/01/05 11:37:43;;;;;;;;;;;;;;;-4.90;65.62;98636.75;4958055;28;20004;-70
2023/01/05 11:40:13;;;;;;;;;;;;;;;-4.89;65.69;98633.06;4953235;28;20046;-70
2023/01/05 11:42:42;;;;;;;;;;;;;;;-4.98;65.34;98634.25;4607473;28;10000401;-70
2023/01/05 11:45:19;;;;;;;;;;;;;;;-5.12;65.08;98628.91;4948972;28;20512;-70
2023/01/05 11:47:46;;;;;;;;;;;;;;;-5.13;64.76;98632.59;4949731;28;20233;-70
2023/01/05 11:50:17;;;;;;;;;;;;;;;-5.19;64.55;98633.41;4948397;28;19930;-70
2023/01/05 11:52:44;;;;;;;;;;;;;;;-5.32;64.45;98634.16;4949534;28;19934;-70
2023/01/05 11:55:36;;;;;;;;;;;;;;;-5.31;64.08;98633.16;4948093;28;19930;-72
2023/01/05 11:58:16;;;;;;;;;;;;;;;-5.28;63.98;98634.59;4928661;28;19930;-69
2023/01/05 12:00:49;;;;;;;;;;;;;;;-5.22;63.88;98638.31;4946041;28;19958;-70
2023/01/05 12:03:24;;;;;;;;;;;;;;;-5.28;63.92;98634.59;4947165;28;19929;-70
2023/01/05 12:05:52;;;;;;;;;;;;;;;-5.33;63.81;98626.38;4950590;28;19936;-69
2023/01/05 12:08:22;;;;;;;;;;;;;;;-5.42;63.78;98623.06;4929336;28;20405;-70
2023/01/05 12:10:54;;;;;;;;;;;;;;;-5.51;64.30;98622.44;4946406;28;19934;-70
2023/01/05 12:13:29;;;;;;;;;;;;;;;-5.55;63.83;98622.00;4950826;28;19930;-69
2023/01/05 12:16:03;;;;;;;;;;;;;;;-5.66;63.85;98614.56;4946626;28;20430;-67
2023/01/05 12:18:39;;;;;;;;;;;;;;;-5.73;63.64;98619.88;4948910;28;19935;-65
2023/01/05 12:21:07;;;;;;;;;;;;;;;-5.84;63.66;98625.78;4953304;28;19961;-68
2023/01/05 12:23:37;;;;;;;;;;;;;;;-5.94;63.80;98626.09;4951420;28;19930;-70
2023/01/05 12:26:12;;;;;;;;;;;;;;;-6.03;64.02;98617.47;4953704;28;20458;-69
2023/01/05 12:28:52;;;;;;;;;;;;;;;-6.14;64.16;98632.16;4947891;28;19931;-69
2023/01/05 12:31:34;;;;;;;;;;;;;;;-6.20;64.51;98627.63;4931916;28;19930;-69
2023/01/05 12:34:10;;;;;;;;;;;;;;;-6.33;64.61;98638.19;4951310;28;20070;-70
2023/01/05 12:36:40;;;;;;;;;;;;;;;-6.53;65.25;98636.19;4954563;28;19930;-69
2023/01/05 12:39:16;;;;;;;;;;;;;;;-6.67;65.63;98632.56;4951728;28;19945;-70
2023/01/05 12:41:59;;;;;;;;;;;;;;;-6.79;65.74;98634.09;4953623;28;19930;-69
2023/01/05 12:44:39;;;;;;;;;;;;;;;-6.89;65.98;98639.75;4950907;28;19934;-69
2023/01/05 12:47:15;;;;;;;;;;;;;;;-7.01;66.32;98634.09;4943713;28;19930;-69
2023/01/05 12:49:43;;;;;;;;;;;;;;;-7.02;66.47;98635.97;4948949;28;19937;-70
2023/01/05 12:52:13;;;;;;;;;;;;;;;-7.13;66.22;98639.91;4952607;28;19934;-69
2023/01/05 12:54:42;;;;;;;;;;;;;;;-7.28;66.54;98644.44;4954524;28;19930;-70
2023/01/05 12:57:10;;;;;;;;;;;;;;;-7.37;66.75;98649.06;4950604;28;19957;-69
2023/01/05 12:59:39;;;;;;;;;;;;;;;-7.44;66.93;98646.31;4951564;28;20021;-65
2023/01/05 13:02:21;;;;;;;;;;;;;;;-7.51;67.37;98647.25;4949738;28;19934;-65
2023/01/05 13:04:51;;;;;;;;;;;;;;;-7.68;67.67;98639.47;4952240;28;19977;-65
2023/01/05 13:07:21;;;;;;;;;;;;;;;-7.64;67.67;98643.44;4952083;28;20024;-65
2023/01/05 13:09:52;;;;;;;;;;;;;;;-7.65;67.95;98644.41;4953784;28;19937;-65
2023/01/05 13:12:18;;;;;;;;;;;;;;;-7.65;68.38;98647.06;4945664;28;19937;-65
2023/01/05 13:14:51;;;;;;;;;;;;;;;-7.70;68.22;98644.16;4944556;28;19930;-65
2023/01/05 13:17:23;;;;;;;;;;;;;;;-7.75;68.66;98650.00;4936670;28;19958;-65
2023/01/05 13:19:54;;;;;;;;;;;;;;;-7.83;69.09;98647.47;4930990;28;19953;-65
2023/01/05 13:22:21;;;;;;;;;;;;;;;-7.86;69.27;98646.00;4936076;28;19950;-65
2023/01/05 13:24:49;;;;;;;;;;;;;;;-7.91;69.57;98650.19;4942311;28;19937;-65